Magnolia, Massachusetts
Current Conditions -  °F | °C
As of 12:53 AM on Monday 26 Jan 2015 (Local Time) from KBVY Reporting Station
Clear Clear  
Wind Chill: -1°   Ceiling: Unl
Heat Index: 14°   Visibility: 10mi
Dew Point: -2°   Wind: 14mph
Humidity: 49%   Direction: 330°NNW
Pressure: 30.06"   Gusts: NA
Location:  42.6166°N, 70.7157°W
Report Text: KBVY 260553Z AUTO 33012KT 10SM CLR M10/M19 A3006 RMK AO2 SLP176 T11001189 11033 21100 53023 $
Loading
Personal Weather Stations






























Interactive Weather Map New forecast layout! Learn more

10-Day Weather Forecast

Advertisements
Track Severe Weather on mobile